Time;durP1;ratioP1;P1;durP2;ratioP2;P2;SDS_P1;SDS_P2;PMS_P1;PMS_P2;Temp;Humidity;BMP_temperature;BMP_pressure;BME280_temperature;BME280_humidity;BME280_pressure;Samples;Min_cycle;Max_cycle;Signal;HPM_P1;HPM_P2
2023/10/24 00:01:24;;;;;;;12.70;11.13;;;;;;;12.17;nan;98655.16;4908031;29;20412;-80
2023/10/24 00:03:49;;;;;;;12.77;10.70;;;;;;;12.17;nan;98662.25;4908473;29;20210;-80
2023/10/24 00:06:15;;;;;;;12.90;11.50;;;;;;;12.16;nan;98661.41;4911242;29;20221;-81
2023/10/24 00:08:41;;;;;;;13.27;10.05;;;;;;;12.16;nan;98661.41;4915026;29;20278;-80
2023/10/24 00:11:07;;;;;;;10.97;9.87;;;;;;;12.13;nan;98659.03;4906763;29;20330;-79
2023/10/24 00:13:33;;;;;;;13.30;10.57;;;;;;;12.12;nan;98649.50;4905008;29;21108;-78
2023/10/24 00:15:58;;;;;;;11.67;10.27;;;;;;;12.11;nan;98647.81;4905096;29;20194;-79
2023/10/24 00:18:25;;;;;;;11.50;10.03;;;;;;;12.08;nan;98637.53;4910145;29;20466;-81
2023/10/24 00:20:50;;;;;;;12.70;11.23;;;;;;;12.07;nan;98614.81;4892808;29;20477;-80
2023/10/24 00:23:16;;;;;;;17.23;11.43;;;;;;;12.08;nan;98610.38;4911831;29;20274;-80
2023/10/24 00:25:41;;;;;;;14.97;10.80;;;;;;;12.08;nan;98627.00;4908845;29;20230;-80
2023/10/24 00:28:07;;;;;;;14.30;11.40;;;;;;;12.08;nan;98616.47;4912167;29;20265;-80
2023/10/24 00:30:32;;;;;;;12.30;10.90;;;;;;;12.07;nan;98611.34;4903237;29;20313;-79
2023/10/24 00:32:57;;;;;;;13.87;11.27;;;;;;;12.06;nan;98636.00;4887897;29;20222;-79
2023/10/24 00:35:23;;;;;;;12.40;10.13;;;;;;;12.06;nan;98628.94;4906021;29;20221;-79
2023/10/24 00:37:48;;;;;;;17.63;13.70;;;;;;;12.09;nan;98614.69;4886141;29;21621;-80
2023/10/24 00:40:14;;;;;;;15.30;10.80;;;;;;;12.11;nan;98594.31;4907106;29;20207;-79
2023/10/24 00:42:39;;;;;;;13.53;11.83;;;;;;;12.09;nan;98589.19;4904177;29;20242;-79
2023/10/24 00:45:06;;;;;;;14.03;11.43;;;;;;;12.07;nan;98588.50;4887471;29;20182;-80
2023/10/24 00:47:32;;;;;;;15.57;11.45;;;;;;;12.07;nan;98599.03;4891268;29;20207;-80
2023/10/24 00:49:58;;;;;;;15.82;11.00;;;;;;;12.08;nan;98603.31;4906736;29;20225;-80
2023/10/24 00:52:24;;;;;;;17.30;11.32;;;;;;;12.09;nan;98591.81;4911079;29;20653;-79
2023/10/24 00:54:50;;;;;;;12.20;11.00;;;;;;;12.10;nan;98577.72;4906075;29;20209;-79
2023/10/24 00:57:16;;;;;;;14.67;11.13;;;;;;;12.10;nan;98574.25;4887083;29;20194;-79
2023/10/24 00:59:43;;;;;;;17.45;11.90;;;;;;;12.12;nan;98575.78;4903171;29;20655;-79
2023/10/24 01:02:11;;;;;;;16.02;11.23;;;;;;;12.13;nan;98572.16;4903841;29;21219;-79
2023/10/24 01:04:38;;;;;;;14.35;10.88;;;;;;;12.13;nan;98569.53;4904266;29;21230;-80
2023/10/24 01:07:03;;;;;;;18.92;14.25;;;;;;;12.08;nan;98569.09;4902160;29;20469;-80
2023/10/24 01:09:29;;;;;;;12.00;10.50;;;;;;;12.05;nan;98564.09;4890075;29;21055;-80
2023/10/24 01:11:55;;;;;;;16.57;12.37;;;;;;;12.06;nan;98565.75;4887665;29;20214;-80
2023/10/24 01:14:20;;;;;;;14.02;10.40;;;;;;;12.03;nan;98550.25;4905853;29;20214;-80
2023/10/24 01:16:46;;;;;;;13.37;10.33;;;;;;;12.01;nan;98556.59;4906821;29;20210;-80
2023/10/24 01:19:12;;;;;;;15.40;10.43;;;;;;;12.02;nan;98550.38;4907958;29;20344;-79
2023/10/24 01:21:46;;;;;;;12.52;9.82;;;;;;;11.95;nan;98539.53;4898118;29;20206;-78
2023/10/24 01:24:16;;;;;;;12.38;11.02;;;;;;;11.90;nan;98549.63;4899832;29;20293;-79
2023/10/24 01:26:43;;;;;;;16.42;12.63;;;;;;;11.88;nan;98541.03;4900882;29;20602;-78
2023/10/24 01:29:12;;;;;;;11.70;10.55;;;;;;;11.90;nan;98544.38;4901919;29;21073;-78
2023/10/24 01:31:37;;;;;;;16.25;11.05;;;;;;;11.92;nan;98542.44;4899827;29;20217;-78
2023/10/24 01:34:03;;;;;;;16.10;10.83;;;;;;;11.92;nan;98539.81;4902365;29;20285;-79
2023/10/24 01:36:29;;;;;;;14.20;10.80;;;;;;;11.89;nan;98527.75;4880890;29;20202;-78
2023/10/24 01:38:54;;;;;;;15.03;9.93;;;;;;;11.89;nan;98535.66;4901208;29;20254;-78
2023/10/24 01:41:20;;;;;;;16.30;11.20;;;;;;;11.86;nan;98522.75;4902568;29;20230;-78
2023/10/24 01:43:45;;;;;;;17.00;10.53;;;;;;;11.87;nan;98532.31;4897243;29;20218;-78
2023/10/24 01:46:11;;;;;;;12.87;10.63;;;;;;;11.87;nan;98524.41;4900133;29;20214;-78
2023/10/24 01:48:37;;;;;;;17.75;11.82;;;;;;;11.89;nan;98511.97;4901024;29;20226;-78
2023/10/24 01:51:03;;;;;;;13.17;10.53;;;;;;;11.91;nan;98519.75;4900898;29;20242;-78
2023/10/24 01:53:28;;;;;;;14.90;11.27;;;;;;;11.92;nan;98538.00;4900539;29;20229;-78
2023/10/24 01:55:54;;;;;;;13.93;11.07;;;;;;;11.94;nan;98541.34;4899915;29;20282;-78
2023/10/24 01:58:20;;;;;;;11.50;10.15;;;;;;;11.96;nan;98538.56;4883305;29;20245;-78
2023/10/24 02:00:45;;;;;;;13.33;10.90;;;;;;;11.97;nan;98542.88;4883758;29;20222;-78
2023/10/24 02:03:11;;;;;;;15.27;11.67;;;;;;;11.99;nan;98543.59;4880697;29;20208;-79
2023/10/24 02:05:38;;;;;;;10.53;9.37;;;;;;;12.02;nan;98545.94;4892822;29;20213;-78
2023/10/24 02:08:03;;;;;;;11.70;10.07;;;;;;;12.06;nan;98554.41;4898661;29;20799;-78
2023/10/24 02:10:29;;;;;;;14.30;10.30;;;;;;;12.07;nan;98543.75;4896047;29;20210;-78
2023/10/24 02:12:54;;;;;;;11.27;9.67;;;;;;;12.09;nan;98559.41;4897372;29;20202;-78
2023/10/24 02:15:19;;;;;;;14.47;10.13;;;;;;;12.08;nan;98547.22;4896010;29;20223;-78
2023/10/24 02:17:45;;;;;;;12.57;10.50;;;;;;;12.08;nan;98553.31;4896660;29;20573;-78
2023/10/24 02:20:10;;;;;;;10.00;8.87;;;;;;;12.08;nan;98561.22;4896289;29;20218;-78
2023/10/24 02:22:36;;;;;;;11.73;9.50;;;;;;;12.09;nan;98573.38;4892207;29;20211;-78
2023/10/24 02:25:01;;;;;;;11.37;9.47;;;;;;;12.11;nan;98565.38;4898587;29;20214;-79
2023/10/24 02:27:27;;;;;;;10.67;9.30;;;;;;;12.11;nan;98566.19;4893809;29;20217;-78
2023/10/24 02:29:52;;;;;;;14.53;10.53;;;;;;;12.12;nan;98564.41;4874209;29;20296;-78
2023/10/24 02:32:18;;;;;;;12.13;10.70;;;;;;;12.13;nan;98560.81;4895932;29;20844;-78
2023/10/24 02:34:49;;;;;;;11.27;8.57;;;;;;;12.12;nan;98565.25;4892845;29;20852;-78
2023/10/24 02:37:14;;;;;;;15.40;10.40;;;;;;;12.11;nan;98571.47;4897329;29;20210;-78
2023/10/24 02:39:39;;;;;;;11.73;9.50;;;;;;;12.09;nan;98576.03;4877678;29;20225;-78
2023/10/24 02:42:05;;;;;;;12.97;9.87;;;;;;;12.07;nan;98577.13;4892853;29;20206;-78
2023/10/24 02:44:31;;;;;;;12.87;9.80;;;;;;;12.06;nan;98592.09;4879457;29;20535;-78
2023/10/24 02:46:56;;;;;;;12.17;9.03;;;;;;;12.06;nan;98586.81;4893654;29;20454;-78
2023/10/24 02:49:23;;;;;;;12.73;9.40;;;;;;;12.08;nan;98566.47;4878447;29;20625;-83
2023/10/24 02:51:48;;;;;;;13.80;11.00;;;;;;;12.09;nan;98554.13;4877236;29;20221;-80
2023/10/24 02:54:14;;;;;;;12.00;9.03;;;;;;;12.08;nan;98558.56;4878737;29;21395;-77
2023/10/24 02:56:39;;;;;;;14.03;8.27;;;;;;;12.08;nan;98555.13;4898895;29;20214;-79
2023/10/24 02:59:05;;;;;;;12.43;10.53;;;;;;;12.08;nan;98555.13;4879895;29;20221;-81
2023/10/24 03:01:31;;;;;;;12.65;10.02;;;;;;;12.10;nan;98556.66;4895657;29;20242;-81
2023/10/24 03:03:56;;;;;;;12.20;10.60;;;;;;;12.11;nan;98553.03;4902073;29;20222;-77
2023/10/24 03:06:21;;;;;;;11.50;9.53;;;;;;;12.14;nan;98544.88;4901535;29;20198;-77
2023/10/24 03:08:48;;;;;;;10.93;9.30;;;;;;;12.14;nan;98518.53;4883259;29;20857;-77
2023/10/24 03:11:21;;;;;;;11.00;9.90;;;;;;;12.14;nan;98521.19;4887307;29;20558;-77
2023/10/24 03:13:46;;;;;;;17.15;9.65;;;;;;;12.13;nan;98513.44;4902401;29;20497;-77
2023/10/24 03:16:11;;;;;;;10.80;9.10;;;;;;;12.13;nan;98509.00;4902557;29;20300;-77
2023/10/24 03:18:37;;;;;;;10.63;9.50;;;;;;;12.12;nan;98501.22;4901616;29;20209;-80
2023/10/24 03:21:04;;;;;;;12.37;10.70;;;;;;;12.08;nan;98500.66;4902859;29;20242;-77
2023/10/24 03:23:30;;;;;;;14.05;10.45;;;;;;;12.04;nan;98508.94;4905627;29;20218;-79
2023/10/24 03:25:55;;;;;;;14.07;11.17;;;;;;;12.02;nan;98511.75;4900018;29;20261;-79
2023/10/24 03:28:21;;;;;;;13.40;10.20;;;;;;;12.04;nan;98514.22;4900604;29;20211;-80
2023/10/24 03:30:48;;;;;;;11.27;10.10;;;;;;;12.08;nan;98513.00;4903095;29;20210;-80
2023/10/24 03:33:13;;;;;;;21.02;10.52;;;;;;;12.10;nan;98514.53;4906077;29;20363;-82
2023/10/24 03:35:39;;;;;;;11.67;9.70;;;;;;;12.14;nan;98521.19;4904200;29;20886;-76
2023/10/24 03:38:04;;;;;;;15.77;10.97;;;;;;;12.16;nan;98518.44;4883751;29;20217;-81
2023/10/24 03:40:31;;;;;;;9.90;8.73;;;;;;;12.20;nan;98518.97;4898033;29;20305;-77
2023/10/24 03:42:57;;;;;;;11.53;9.30;;;;;;;12.23;nan;98521.34;4903799;29;20352;-77
2023/10/24 03:45:22;;;;;;;13.13;10.23;;;;;;;12.24;nan;98515.94;4898574;29;20654;-79
2023/10/24 03:47:49;;;;;;;10.90;8.73;;;;;;;12.28;nan;98522.59;4898689;29;20198;-82
2023/10/24 03:50:17;;;;;;;11.52;9.65;;;;;;;12.29;nan;98510.28;4898519;29;20243;-81
2023/10/24 03:52:43;;;;;;;10.65;8.70;;;;;;;12.27;nan;98493.78;4899689;29;20751;-82
2023/10/24 03:55:11;;;;;;;13.80;11.30;;;;;;;12.25;nan;98511.50;4900592;29;20202;-85
2023/10/24 03:57:39;;;;;;;10.77;9.55;;;;;;;12.22;nan;98511.78;4902755;29;20934;-83
2023/10/24 04:00:08;;;;;;;11.18;9.80;;;;;;;12.23;nan;98516.06;4898875;29;20222;-79
2023/10/24 04:02:37;;;;;;;11.23;9.55;;;;;;;12.23;nan;98513.44;4900730;29;20199;-84
2023/10/24 04:05:03;;;;;;;10.83;9.63;;;;;;;12.24;nan;98515.94;4901172;29;20250;-80
2023/10/24 04:07:29;;;;;;;12.67;11.40;;;;;;;12.29;nan;98528.72;4901041;29;20924;-77
2023/10/24 04:09:56;;;;;;;13.83;9.03;;;;;;;12.28;nan;98527.88;4901364;29;20195;-77
2023/10/24 04:12:21;;;;;;;11.43;10.20;;;;;;;12.30;nan;98533.84;4900469;29;20277;-84
2023/10/24 04:14:47;;;;;;;10.43;9.37;;;;;;;12.32;nan;98533.72;4899652;29;20640;-79
2023/10/24 04:17:12;;;;;;;13.57;9.47;;;;;;;12.33;nan;98524.84;4901717;29;20194;-81
2023/10/24 04:19:53;;;;;;;12.02;9.70;;;;;;;12.29;nan;98512.94;4881623;29;20234;-80
2023/10/24 04:22:18;;;;;;;12.50;10.50;;;;;;;12.28;nan;98504.16;4898159;29;20748;-80
2023/10/24 04:24:43;;;;;;;11.20;9.90;;;;;;;12.26;nan;98485.06;4901847;29;20290;-83
2023/10/24 04:27:09;;;;;;;12.00;9.60;;;;;;;12.27;nan;98493.78;4902779;29;20189;-81
2023/10/24 04:29:35;;;;;;;13.45;10.02;;;;;;;12.28;nan;98480.47;4882230;29;20210;-83
2023/10/24 04:32:00;;;;;;;17.53;10.90;;;;;;;12.29;nan;98476.88;4899522;29;20206;-85
2023/10/24 04:34:26;;;;;;;10.30;8.20;;;;;;;12.31;nan;98474.97;4900306;29;20187;-80
2023/10/24 04:36:53;;;;;;;15.20;9.70;;;;;;;12.32;nan;98488.94;4899254;29;20237;-83
2023/10/24 04:39:19;;;;;;;12.70;8.57;;;;;;;12.33;nan;98486.16;4900643;29;20206;-84
2023/10/24 04:41:47;;;;;;;15.63;9.57;;;;;;;12.35;nan;98481.59;4899337;29;20228;-79
2023/10/24 04:44:13;;;;;;;11.23;9.77;;;;;;;12.36;nan;98472.72;4901515;29;20454;-83
2023/10/24 04:46:39;;;;;;;9.93;9.02;;;;;;;12.38;nan;98464.69;4903607;29;20644;-81
2023/10/24 04:49:05;;;;;;;10.93;8.40;;;;;;;12.40;nan;98460.13;4904757;29;20229;-83
2023/10/24 04:51:30;;;;;;;13.20;8.83;;;;;;;12.44;nan;98466.78;4901308;29;20785;-84
2023/10/24 04:53:56;;;;;;;15.90;8.40;;;;;;;12.47;nan;98458.59;4900813;29;20194;-81
2023/10/24 04:56:21;;;;;;;10.77;7.53;;;;;;;12.49;nan;98459.28;4903002;29;20230;-79
2023/10/24 04:58:47;;;;;;;10.77;9.00;;;;;;;12.52;nan;98461.66;4899708;29;20206;-84
2023/10/24 05:01:12;;;;;;;11.93;7.80;;;;;;;12.52;nan;98459.00;4900534;29;20225;-80
2023/10/24 05:03:38;;;;;;;9.70;8.70;;;;;;;12.53;nan;98458.06;4883446;29;20265;-79
2023/10/24 05:06:05;;;;;;;10.23;8.95;;;;;;;12.53;nan;98454.56;4901879;29;20454;-82
2023/10/24 05:08:30;;;;;;;11.25;9.38;;;;;;;12.51;nan;98443.38;4900926;29;20960;-81
2023/10/24 05:10:55;;;;;;;10.60;9.43;;;;;;;12.49;nan;98435.59;4901444;29;20265;-80
2023/10/24 05:13:21;;;;;;;11.47;7.83;;;;;;;12.45;nan;98428.09;4901885;29;20203;-79
2023/10/24 05:15:46;;;;;;;12.73;8.10;;;;;;;12.43;nan;98435.31;4889384;29;20230;-80
2023/10/24 05:18:12;;;;;;;10.70;9.00;;;;;;;12.43;nan;98437.97;4911068;29;20622;-81
2023/10/24 05:20:38;;;;;;;11.33;9.17;;;;;;;12.45;nan;98421.06;4903089;29;21043;-82
2023/10/24 05:23:05;;;;;;;9.13;7.30;;;;;;;12.45;nan;98412.28;4902337;29;20226;-84
2023/10/24 05:25:30;;;;;;;13.45;7.90;;;;;;;12.45;nan;98413.16;4903726;29;20554;-81
2023/10/24 05:27:55;;;;;;;10.33;8.30;;;;;;;12.46;nan;98420.06;4903033;29;20262;-77
2023/10/24 05:30:21;;;;;;;8.37;7.57;;;;;;;12.49;nan;98440.03;4900172;29;20214;-77
2023/10/24 05:32:47;;;;;;;10.13;7.95;;;;;;;12.50;nan;98452.22;4900251;29;20197;-79
2023/10/24 05:35:12;;;;;;;9.83;8.73;;;;;;;12.52;nan;98471.34;4899862;29;20224;-79
2023/10/24 05:37:38;;;;;;;20.07;16.37;;;;;;;12.54;nan;98464.97;4899841;29;20496;-81
2023/10/24 05:40:05;;;;;;;35.40;24.27;;;;;;;12.56;nan;98454.31;4901140;29;20228;-79
2023/10/24 05:42:30;;;;;;;35.92;26.25;;;;;;;12.56;nan;98457.78;4898957;29;20265;-82
2023/10/24 05:44:56;;;;;;;27.40;20.80;;;;;;;12.59;nan;98456.69;4898505;29;20202;-83
2023/10/24 05:47:21;;;;;;;29.50;20.90;;;;;;;12.61;nan;98460.84;4900573;29;20202;-81
2023/10/24 05:49:46;;;;;;;25.10;20.33;;;;;;;12.63;nan;98453.59;4898732;29;20235;-76
2023/10/24 05:52:12;;;;;;;25.10;18.50;;;;;;;12.64;nan;98470.28;4895948;29;20218;-80
2023/10/24 05:54:37;;;;;;;20.90;14.03;;;;;;;12.66;nan;98467.47;4896282;29;20190;-80
2023/10/24 05:57:03;;;;;;;18.77;14.60;;;;;;;12.68;nan;98473.44;4896344;29;20315;-77
2023/10/24 05:59:29;;;;;;;16.43;13.20;;;;;;;12.70;nan;98480.25;4896247;29;20273;-79
2023/10/24 06:01:55;;;;;;;14.07;11.57;;;;;;;12.72;nan;98478.31;4895568;29;20265;-78
2023/10/24 06:04:20;;;;;;;12.90;9.07;;;;;;;12.75;nan;98482.47;4896664;29;20206;-78
2023/10/24 06:06:46;;;;;;;8.50;6.80;;;;;;;12.73;nan;98481.78;4878111;29;20195;-80
2023/10/24 06:09:12;;;;;;;9.10;8.20;;;;;;;12.74;nan;98470.25;4895619;29;20730;-81
2023/10/24 06:11:41;;;;;;;8.50;6.38;;;;;;;12.72;nan;98470.41;4893566;29;20301;-79
2023/10/24 06:14:07;;;;;;;7.68;6.90;;;;;;;12.72;nan;98472.19;4892339;29;20777;-79
2023/10/24 06:16:32;;;;;;;8.73;6.60;;;;;;;12.73;nan;98465.97;4895583;29;20206;-77
2023/10/24 06:18:57;;;;;;;9.50;7.10;;;;;;;12.75;nan;98466.66;4896407;29;20205;-77
2023/10/24 06:21:23;;;;;;;7.23;6.50;;;;;;;12.77;nan;98464.69;4897647;29;20298;-77
2023/10/24 06:23:48;;;;;;;9.60;6.53;;;;;;;12.80;nan;98464.44;4890624;29;20665;-79
2023/10/24 06:26:15;;;;;;;8.60;7.10;;;;;;;12.81;nan;98461.66;4896423;29;20214;-79
2023/10/24 06:28:42;;;;;;;8.10;6.88;;;;;;;12.82;nan;98473.03;4895621;29;20222;-79
2023/10/24 06:31:07;;;;;;;6.60;5.95;;;;;;;12.86;nan;98476.22;4895042;29;20213;-77
2023/10/24 06:33:32;;;;;;;8.07;6.57;;;;;;;12.86;nan;98471.78;4890784;29;20201;-79
2023/10/24 06:36:02;;;;;;;7.93;6.77;;;;;;;12.89;nan;98475.94;4892584;29;20193;-79
2023/10/24 06:38:27;;;;;;;8.25;7.10;;;;;;;12.90;nan;98472.31;4895751;29;20202;-77
2023/10/24 06:40:53;;;;;;;8.33;6.50;;;;;;;12.92;nan;98471.22;4891843;29;20298;-79
2023/10/24 06:43:19;;;;;;;11.32;7.55;;;;;;;12.96;nan;98487.56;4898122;29;20529;-79
2023/10/24 06:45:47;;;;;;;11.30;6.33;;;;;;;12.96;nan;98496.34;4895999;29;20230;-78
2023/10/24 06:48:14;;;;;;;9.13;6.82;;;;;;;12.98;nan;98504.91;4895262;29;20885;-81
2023/10/24 06:50:39;;;;;;;11.18;6.50;;;;;;;13.00;nan;98497.69;4896338;29;20213;-79
2023/10/24 06:53:09;;;;;;;8.17;6.20;;;;;;;13.02;nan;98497.56;4895407;29;20187;-80
2023/10/24 06:55:35;;;;;;;9.48;6.63;;;;;;;13.02;nan;98498.41;4892149;29;20211;-80
2023/10/24 06:58:01;;;;;;;9.55;8.50;;;;;;;13.06;nan;98509.50;4879764;29;20214;-79
2023/10/24 07:00:26;;;;;;;8.67;7.50;;;;;;;13.09;nan;98511.00;4895039;29;20222;-80
2023/10/24 07:02:52;;;;;;;8.00;6.90;;;;;;;13.10;nan;98510.06;4892079;29;20789;-80
2023/10/24 07:05:21;;;;;;;7.40;6.55;;;;;;;13.12;nan;98514.19;4895531;29;20230;-81
2023/10/24 07:07:46;;;;;;;8.07;7.30;;;;;;;13.14;nan;98514.06;4898540;29;20209;-80
2023/10/24 07:10:12;;;;;;;7.43;6.70;;;;;;;13.17;nan;98508.50;4896971;29;20199;-80
2023/10/24 07:12:37;;;;;;;10.80;6.20;;;;;;;13.18;nan;98512.81;4896166;29;20925;-80
2023/10/24 07:15:03;;;;;;;8.80;6.17;;;;;;;13.20;nan;98522.22;4898563;29;20740;-79
2023/10/24 07:17:30;;;;;;;7.45;6.25;;;;;;;13.21;nan;98531.81;4897877;29;20202;-81
2023/10/24 07:19:56;;;;;;;10.63;6.30;;;;;;;13.22;nan;98516.81;4897337;29;20218;-80
2023/10/24 07:22:22;;;;;;;10.10;7.10;;;;;;;13.21;nan;98505.44;4897175;29;20233;-80
2023/10/24 07:24:47;;;;;;;8.23;7.33;;;;;;;13.21;nan;98505.44;4894717;29;20569;-80
2023/10/24 07:27:13;;;;;;;8.97;7.33;;;;;;;13.23;nan;98505.28;4900210;29;20261;-79
2023/10/24 07:29:39;;;;;;;9.93;6.80;;;;;;;13.23;nan;98505.28;4895346;29;20306;-78
2023/10/24 07:32:05;;;;;;;10.13;6.53;;;;;;;13.24;nan;98513.06;4896303;29;20225;-80
2023/10/24 07:34:34;;;;;;;6.60;5.90;;;;;;;13.25;nan;98511.25;4894685;29;20195;-78
2023/10/24 07:37:00;;;;;;;7.00;6.00;;;;;;;13.26;nan;98524.34;4899342;29;20210;-79
2023/10/24 07:39:26;;;;;;;7.20;6.50;;;;;;;13.26;nan;98527.00;4891585;29;20720;-79
2023/10/24 07:41:51;;;;;;;9.70;7.13;;;;;;;13.29;nan;98533.78;4888982;29;20295;-80
2023/10/24 07:44:17;;;;;;;11.17;7.67;;;;;;;13.30;nan;98538.09;4886163;29;20895;-81
2023/10/24 07:46:42;;;;;;;8.33;7.27;;;;;;;13.32;nan;98535.31;4890172;29;20210;-80
2023/10/24 07:49:08;;;;;;;10.33;6.87;;;;;;;13.29;nan;98533.78;4888829;29;20222;-81
2023/10/24 07:51:34;;;;;;;10.13;7.33;;;;;;;13.28;nan;98542.66;4889107;29;20214;-78
2023/10/24 07:53:59;;;;;;;7.37;5.70;;;;;;;13.27;nan;98536.56;4888419;29;20489;-80
2023/10/24 07:56:25;;;;;;;8.07;5.70;;;;;;;13.30;nan;98540.72;4889324;29;20273;-79
2023/10/24 07:58:50;;;;;;;9.50;5.70;;;;;;;13.33;nan;98539.59;4889057;29;20253;-78
2023/10/24 08:01:18;;;;;;;7.30;6.53;;;;;;;13.36;nan;98537.50;4890456;29;20206;-81
2023/10/24 08:03:43;;;;;;;9.25;5.68;;;;;;;13.39;nan;98533.75;4888938;29;20230;-81
2023/10/24 08:06:09;;;;;;;10.25;6.90;;;;;;;13.41;nan;98527.38;4886382;29;20465;-80
2023/10/24 08:08:34;;;;;;;7.93;6.10;;;;;;;13.44;nan;98518.34;4887590;29;20210;-81
2023/10/24 08:11:00;;;;;;;5.93;5.30;;;;;;;13.44;nan;98523.63;4887793;29;20254;-81
2023/10/24 08:13:25;;;;;;;7.77;6.50;;;;;;;13.44;nan;98519.16;4889907;29;20915;-81
2023/10/24 08:15:52;;;;;;;5.77;5.17;;;;;;;13.46;nan;98527.78;4889202;29;20207;-80
2023/10/24 08:18:20;;;;;;;6.65;5.65;;;;;;;13.48;nan;98523.19;4889394;29;20260;-80
2023/10/24 08:20:46;;;;;;;8.75;5.75;;;;;;;13.51;nan;98516.81;4890601;29;20245;-80
2023/10/24 08:23:12;;;;;;;7.20;6.57;;;;;;;13.51;nan;98508.88;4887086;29;20674;-82
2023/10/24 08:25:37;;;;;;;6.37;5.50;;;;;;;13.53;nan;98506.09;4891685;29;20480;-81
2023/10/24 08:28:03;;;;;;;11.33;6.90;;;;;;;13.55;nan;98501.50;4895563;29;20206;-80
2023/10/24 08:30:31;;;;;;;11.30;6.87;;;;;;;13.64;nan;98503.31;4888022;29;20198;-80
2023/10/24 08:32:57;;;;;;;7.25;6.30;;;;;;;13.72;nan;98509.50;4892910;29;20206;-80
2023/10/24 08:35:23;;;;;;;8.33;5.50;;;;;;;13.81;nan;98512.25;4887791;29;20213;-81
2023/10/24 08:37:48;;;;;;;8.33;5.87;;;;;;;13.86;nan;98510.03;4895489;29;20470;-82
2023/10/24 08:40:14;;;;;;;10.30;6.27;;;;;;;13.91;nan;98507.78;4892862;29;20236;-78
2023/10/24 08:42:40;;;;;;;5.50;5.00;;;;;;;13.95;nan;98504.69;4891093;29;20221;-81
2023/10/24 08:45:07;;;;;;;7.72;6.82;;;;;;;13.99;nan;98501.75;4890795;29;20474;-79
2023/10/24 08:47:34;;;;;;;8.35;6.35;;;;;;;14.05;nan;98496.72;4891526;29;20205;-80
2023/10/24 08:50:00;;;;;;;6.40;5.43;;;;;;;14.11;nan;98504.06;4891873;29;20654;-75
2023/10/24 08:52:28;;;;;;;7.60;5.53;;;;;;;14.15;nan;98508.06;4898729;29;20202;-76
2023/10/24 08:54:53;;;;;;;7.28;5.88;;;;;;;14.21;nan;98505.81;4893667;29;20209;-78
2023/10/24 08:57:26;;;;;;;8.23;5.43;;;;;;;14.24;nan;98497.59;4898484;29;20202;-76
2023/10/24 08:59:54;;;;;;;9.48;5.93;;;;;;;14.27;nan;98508.69;4896870;29;20210;-76
2023/10/24 09:02:21;;;;;;;6.75;5.43;;;;;;;14.30;nan;98511.03;4900484;29;21176;-76
2023/10/24 09:04:47;;;;;;;6.85;5.50;;;;;;;14.35;nan;98515.88;4891828;29;20242;-77
2023/10/24 09:07:13;;;;;;;7.45;6.00;;;;;;;14.39;nan;98509.31;4898500;29;20973;-75
2023/10/24 09:09:39;;;;;;;7.70;5.67;;;;;;;14.41;nan;98501.25;4899095;29;20207;-77
2023/10/24 09:12:05;;;;;;;8.37;5.20;;;;;;;14.42;nan;98505.53;4897363;29;20462;-77
2023/10/24 09:14:31;;;;;;;6.40;4.55;;;;;;;14.41;nan;98503.88;4896295;29;21005;-76
2023/10/24 09:17:03;;;;;;;5.13;4.20;;;;;;;14.40;nan;98516.28;4897053;29;20199;-77
2023/10/24 09:19:29;;;;;;;6.22;4.65;;;;;;;14.41;nan;98509.19;4892859;29;20614;-76
2023/10/24 09:21:56;;;;;;;5.43;4.00;;;;;;;14.45;nan;98507.91;4892062;29;20218;-76
2023/10/24 09:24:22;;;;;;;5.85;4.05;;;;;;;14.48;nan;98495.22;4891257;29;20604;-78
2023/10/24 09:26:59;;;;;;;4.13;3.40;;;;;;;14.53;nan;98497.47;4889297;29;20298;-77
2023/10/24 09:29:27;;;;;;;3.83;3.00;;;;;;;14.56;nan;98497.97;4892595;29;20261;-77
2023/10/24 09:31:53;;;;;;;4.13;3.72;;;;;;;14.58;nan;98497.81;4894561;29;20312;-77
2023/10/24 09:34:19;;;;;;;4.75;3.65;;;;;;;14.60;nan;98501.97;4890772;29;20948;-77
2023/10/24 09:36:46;;;;;;;4.45;3.67;;;;;;;14.64;nan;98497.22;4892543;29;20202;-77
2023/10/24 09:39:12;;;;;;;7.43;4.57;;;;;;;14.68;nan;98497.75;4897162;29;20218;-76
2023/10/24 09:41:44;;;;;;;6.47;5.80;;;;;;;14.71;nan;98489.50;4896097;29;20444;-77
2023/10/24 09:44:10;;;;;;;7.10;5.13;;;;;;;14.71;nan;98495.63;4896897;29;20226;-76
2023/10/24 09:46:36;;;;;;;9.57;6.73;;;;;;;14.70;nan;98491.34;4891770;29;20381;-77
2023/10/24 09:49:06;;;;;;;16.17;8.77;;;;;;;14.71;nan;98490.34;4895161;29;20823;-78
2023/10/24 09:51:38;;;;;;;13.98;8.63;;;;;;;14.71;nan;98489.50;4896030;29;20504;-76
2023/10/24 09:54:05;;;;;;;8.75;5.15;;;;;;;14.72;nan;98491.19;4898794;29;20210;-78
2023/10/24 09:56:31;;;;;;;5.60;4.43;;;;;;;14.73;nan;98498.97;4899471;29;20217;-76
2023/10/24 09:58:57;;;;;;;4.47;3.50;;;;;;;14.74;nan;98494.50;4897746;29;20205;-77
2023/10/24 10:01:23;;;;;;;3.43;2.37;;;;;;;14.74;nan;98484.78;4892620;29;20218;-76
2023/10/24 10:03:53;;;;;;;2.33;2.10;;;;;;;14.75;nan;98491.72;4896765;29;20508;-76
2023/10/24 10:06:19;;;;;;;5.10;1.90;;;;;;;14.73;nan;98496.31;4908748;29;20799;-78
2023/10/24 10:08:46;;;;;;;4.05;1.98;;;;;;;14.72;nan;98492.03;4902903;29;20194;-78
2023/10/24 10:11:12;;;;;;;4.15;1.20;;;;;;;14.72;nan;98493.84;4898809;29;20692;-78
2023/10/24 10:13:46;;;;;;;2.30;1.43;;;;;;;14.69;nan;98497.63;4904543;29;20207;-76
2023/10/24 10:16:39;;;;;;;1.00;0.80;;;;;;;14.65;nan;98485.66;4897817;29;20209;-77
2023/10/24 10:19:23;;;;;;;2.08;1.00;;;;;;;14.60;nan;98482.66;4901048;29;20239;-78
2023/10/24 10:22:22;;;;;;;1.20;1.10;;;;;;;14.56;nan;98482.13;4896779;29;20218;-77
2023/10/24 10:25:25;;;;;;;0.95;0.90;;;;;;;14.56;nan;98468.09;4892888;29;20257;-77
2023/10/24 10:28:17;;;;;;;1.45;1.20;;;;;;;14.58;nan;98463.47;4892420;29;20242;-77
2023/10/24 10:30:56;;;;;;;1.05;0.90;;;;;;;14.58;nan;98458.16;4853492;29;20853;-78
2023/10/24 10:33:24;;;;;;;1.08;0.70;;;;;;;14.59;nan;98459.84;4904256;29;20222;-78
2023/10/24 10:36:02;;;;;;;0.80;0.80;;;;;;;14.62;nan;98453.44;4903792;29;20498;-77
2023/10/24 10:38:47;;;;;;;1.08;1.00;;;;;;;14.63;nan;98444.50;4903112;29;20457;-78
2023/10/24 10:41:22;;;;;;;2.17;1.10;;;;;;;14.62;nan;98438.41;4902739;29;20222;-78
2023/10/24 10:43:53;;;;;;;1.60;1.10;;;;;;;14.63;nan;98449.78;4903396;29;20209;-78
2023/10/24 10:46:20;;;;;;;1.67;1.30;;;;;;;14.63;nan;98445.34;4904596;29;20262;-78
2023/10/24 10:48:56;;;;;;;1.55;1.10;;;;;;;14.64;nan;98436.44;4887254;29;20723;-77
2023/10/24 10:51:28;;;;;;;2.80;1.45;;;;;;;14.65;nan;98438.09;4906341;29;20206;-77
2023/10/24 10:54:30;;;;;;;1.67;1.25;;;;;;;14.67;nan;98436.13;4904134;29;20213;-77
2023/10/24 10:57:02;;;;;;;1.30;1.05;;;;;;;14.70;nan;98435.00;4906784;29;20520;-78
2023/10/24 10:59:49;;;;;;;2.35;1.55;;;;;;;14.71;nan;98432.19;4902725;29;20720;-80
2023/10/24 11:02:28;;;;;;;1.10;1.00;;;;;;;14.74;nan;98437.19;4903561;29;20405;-77
2023/10/24 11:04:53;;;;;;;1.65;1.55;;;;;;;14.79;nan;98434.91;4904712;29;20205;-77
2023/10/24 11:07:51;;;;;;;1.43;1.20;;;;;;;14.82;nan;98429.34;4903226;29;20784;-79
2023/10/24 11:10:17;;;;;;;1.00;0.90;;;;;;;14.85;nan;98427.34;4902268;29;20213;-77
2023/10/24 11:12:49;;;;;;;1.07;0.97;;;;;;;14.88;nan;98427.03;4906810;29;20752;-81
2023/10/24 11:15:14;;;;;;;1.08;0.98;;;;;;;14.89;nan;98426.88;4905645;29;20825;-78
2023/10/24 11:17:40;;;;;;;0.97;0.90;;;;;;;14.92;nan;98420.47;4901003;29;20205;-79
2023/10/24 11:20:10;;;;;;;1.20;1.10;;;;;;;14.94;nan;98421.16;4893906;29;20210;-79
2023/10/24 11:22:38;;;;;;;1.42;1.33;;;;;;;14.93;nan;98409.75;4895250;29;20218;-79
2023/10/24 11:25:14;;;;;;;1.10;1.00;;;;;;;14.91;nan;98403.78;4901837;29;20210;-78
2023/10/24 11:27:41;;;;;;;3.53;1.10;;;;;;;14.88;nan;98401.44;4905047;29;20217;-79
2023/10/24 11:30:07;;;;;;;1.88;0.85;;;;;;;14.89;nan;98410.19;4904378;29;20202;-78
2023/10/24 11:32:33;;;;;;;3.28;1.00;;;;;;;14.91;nan;98403.78;4902637;29;20211;-79
2023/10/24 11:34:59;;;;;;;2.15;1.65;;;;;;;14.94;nan;98392.06;4902806;29;20207;-78
2023/10/24 11:37:24;;;;;;;1.53;1.17;;;;;;;14.98;nan;98396.03;4907448;29;20214;-77
2023/10/24 11:39:50;;;;;;;1.70;1.20;;;;;;;15.04;nan;98398.06;4900623;29;20737;-78
2023/10/24 11:42:16;;;;;;;1.13;1.00;;;;;;;15.06;nan;98393.44;4901882;29;20218;-77
2023/10/24 11:44:41;;;;;;;2.07;1.17;;;;;;;15.10;nan;98388.69;4909934;29;20206;-79